createdAt,value
2018-11-25T00:00:29.354Z,3.50
2018-11-25T00:02:57.711Z,3.60
2018-11-25T00:05:25.958Z,3.50
2018-11-25T00:07:54.193Z,3.50
2018-11-25T00:10:22.487Z,3.50
2018-11-25T00:12:50.788Z,3.50
2018-11-25T00:15:19.130Z,3.50
2018-11-25T00:17:47.406Z,3.50
2018-11-25T00:20:15.662Z,3.50
2018-11-25T00:22:44.001Z,3.50
2018-11-25T00:25:13.311Z,3.50
2018-11-25T00:27:41.751Z,3.50
2018-11-25T00:30:12.179Z,3.50
2018-11-25T00:32:40.452Z,3.50
2018-11-25T00:35:09.981Z,3.50
2018-11-25T00:37:38.226Z,3.50
2018-11-25T00:40:08.264Z,3.40
2018-11-25T00:42:36.601Z,3.40
2018-11-25T00:45:05.862Z,3.50
2018-11-25T00:47:34.127Z,3.40
2018-11-25T00:50:02.402Z,3.40
2018-11-25T00:52:30.623Z,3.50
2018-11-25T00:54:58.894Z,3.40
2018-11-25T00:57:27.195Z,3.50
2018-11-25T00:59:55.471Z,3.40
2018-11-25T01:02:23.804Z,3.50
2018-11-25T01:04:52.102Z,3.50
2018-11-25T01:07:20.442Z,3.50
2018-11-25T01:09:48.781Z,3.50
2018-11-25T01:12:17.035Z,3.50
2018-11-25T01:14:45.693Z,3.50
2018-11-25T01:17:13.945Z,3.50
2018-11-25T01:19:42.223Z,3.50
2018-11-25T01:22:10.494Z,3.50
2018-11-25T01:24:38.808Z,3.50
2018-11-25T01:27:07.104Z,3.50
2018-11-25T01:29:35.366Z,3.50
2018-11-25T01:32:03.619Z,3.50
2018-11-25T01:34:31.914Z,3.50
2018-11-25T01:37:00.163Z,3.50
2018-11-25T01:39:28.419Z,3.50
2018-11-25T01:41:56.816Z,3.50
2018-11-25T01:44:25.074Z,3.50
2018-11-25T01:46:53.376Z,3.50
2018-11-25T01:49:22.608Z,3.50
2018-11-25T01:51:49.911Z,3.50
2018-11-25T01:54:18.188Z,3.50
2018-11-25T01:56:46.460Z,3.50
2018-11-25T01:59:14.715Z,3.50
2018-11-25T02:01:43.075Z,3.50
2018-11-25T02:04:11.327Z,3.50
2018-11-25T02:06:39.757Z,3.50
2018-11-25T02:09:08.546Z,3.50
2018-11-25T02:11:36.877Z,3.50
2018-11-25T02:14:05.471Z,3.50
2018-11-25T02:16:33.724Z,3.50
2018-11-25T02:19:02.003Z,3.50
2018-11-25T02:21:30.279Z,3.50
2018-11-25T02:23:58.531Z,3.50
2018-11-25T02:26:26.806Z,3.50
2018-11-25T02:28:55.088Z,3.50
2018-11-25T02:31:23.382Z,3.50
2018-11-25T02:33:51.635Z,3.50
2018-11-25T02:36:20.131Z,3.50
2018-11-25T02:38:48.421Z,3.50
2018-11-25T02:41:16.794Z,3.50
2018-11-25T02:43:45.054Z,3.50
2018-11-25T02:46:13.338Z,3.50
2018-11-25T02:48:41.619Z,3.50
2018-11-25T02:51:09.901Z,3.50
2018-11-25T02:53:38.150Z,3.50
2018-11-25T02:56:06.432Z,3.50
2018-11-25T02:58:34.705Z,3.50
2018-11-25T03:01:08.333Z,3.50
2018-11-25T03:03:37.093Z,3.50
2018-11-25T03:06:05.414Z,3.50
2018-11-25T03:08:33.667Z,3.50
2018-11-25T03:11:01.934Z,3.50
2018-11-25T03:13:30.358Z,3.50
2018-11-25T03:15:58.596Z,3.50
2018-11-25T03:18:26.869Z,3.50
2018-11-25T03:20:55.171Z,3.50
2018-11-25T03:23:23.427Z,3.50
2018-11-25T03:25:51.808Z,3.50
2018-11-25T03:28:20.090Z,3.50
2018-11-25T03:30:48.439Z,3.50
2018-11-25T03:33:16.700Z,3.50
2018-11-25T03:35:44.981Z,3.50
2018-11-25T03:38:13.308Z,3.50
2018-11-25T03:40:41.749Z,3.50
2018-11-25T03:43:10.048Z,3.50
2018-11-25T03:45:38.351Z,3.50
2018-11-25T03:48:06.695Z,3.50
2018-11-25T03:50:35.005Z,3.50
2018-11-25T03:53:03.441Z,3.50
2018-11-25T03:55:31.817Z,3.50
2018-11-25T03:58:00.129Z,3.50
2018-11-25T04:00:28.433Z,3.40
2018-11-25T04:02:56.804Z,3.40
2018-11-25T04:05:25.078Z,3.40
2018-11-25T04:07:56.857Z,3.40
2018-11-25T04:10:25.133Z,3.40
2018-11-25T04:12:53.439Z,3.40
2018-11-25T04:15:21.754Z,3.40
2018-11-25T04:17:50.100Z,3.40
2018-11-25T04:20:19.445Z,3.40
2018-11-25T04:22:47.922Z,3.40
2018-11-25T04:25:16.251Z,3.40
2018-11-25T04:27:44.573Z,3.40
2018-11-25T04:30:14.714Z,3.40
2018-11-25T04:32:43.361Z,3.40
2018-11-25T04:35:12.380Z,3.40
2018-11-25T04:37:40.697Z,3.40
2018-11-25T04:40:11.988Z,3.40
2018-11-25T04:42:40.361Z,3.40
2018-11-25T04:45:10.270Z,3.40
2018-11-25T04:47:38.713Z,3.40
2018-11-25T04:50:10.056Z,3.40
2018-11-25T04:52:38.340Z,3.40
2018-11-25T04:55:07.128Z,3.40
2018-11-25T04:57:35.509Z,3.40
2018-11-25T05:00:03.912Z,3.40
2018-11-25T05:02:32.213Z,3.40
2018-11-25T05:05:00.620Z,3.40
2018-11-25T05:07:28.892Z,3.40
2018-11-25T05:09:57.149Z,3.40
2018-11-25T05:12:25.440Z,3.40
2018-11-25T05:14:53.704Z,3.50
2018-11-25T05:17:22.026Z,3.40
2018-11-25T05:19:50.289Z,3.40
2018-11-25T05:22:18.600Z,3.50
2018-11-25T05:24:46.903Z,3.50
2018-11-25T05:27:15.225Z,3.50
2018-11-25T05:29:43.508Z,3.50
2018-11-25T05:32:11.889Z,3.50
2018-11-25T05:34:40.164Z,3.50
2018-11-25T05:37:08.465Z,3.50
2018-11-25T05:39:36.756Z,3.50
2018-11-25T05:42:05.344Z,3.50
2018-11-25T05:44:33.620Z,3.50
2018-11-25T05:47:01.982Z,3.50
2018-11-25T05:49:36.322Z,3.50
2018-11-25T05:51:58.619Z,3.50
2018-11-25T05:54:26.890Z,3.50
2018-11-25T05:56:55.228Z,3.50
2018-11-25T05:59:23.700Z,3.50
2018-11-25T06:01:52.030Z,3.50
2018-11-25T06:04:20.328Z,3.50
2018-11-25T06:06:48.644Z,3.50
2018-11-25T06:09:17.011Z,3.50
2018-11-25T06:11:45.344Z,3.50
2018-11-25T06:14:13.719Z,3.50
2018-11-25T06:16:42.103Z,3.50
2018-11-25T06:19:10.373Z,3.50
2018-11-25T06:21:38.900Z,3.50
2018-11-25T06:24:07.195Z,3.50
2018-11-25T06:26:35.485Z,3.50
2018-11-25T06:29:03.808Z,3.60
2018-11-25T06:31:32.174Z,3.60
2018-11-25T06:34:00.833Z,3.60
2018-11-25T06:36:29.121Z,3.60
2018-11-25T06:38:57.526Z,3.60
2018-11-25T06:41:25.833Z,3.60
2018-11-25T06:43:54.168Z,3.60
2018-11-25T06:46:22.569Z,3.60
2018-11-25T06:48:54.925Z,3.60
2018-11-25T06:51:19.470Z,3.60
2018-11-25T06:53:47.786Z,3.60
2018-11-25T06:56:16.161Z,3.60
2018-11-25T06:58:44.508Z,3.60
2018-11-25T07:01:12.801Z,3.60
2018-11-25T07:03:41.096Z,3.60
2018-11-25T07:06:09.498Z,3.60
2018-11-25T07:08:37.849Z,3.60
2018-11-25T07:11:06.360Z,3.70
2018-11-25T07:13:34.706Z,3.70
2018-11-25T07:16:03.201Z,3.70
2018-11-25T07:18:31.496Z,3.70
2018-11-25T07:20:59.800Z,3.70
2018-11-25T07:23:28.198Z,3.70
2018-11-25T07:25:56.453Z,3.70
2018-11-25T07:28:24.780Z,3.70
2018-11-25T07:30:53.057Z,3.70
2018-11-25T07:33:21.406Z,3.70
2018-11-25T07:35:49.668Z,3.70
2018-11-25T07:38:17.990Z,3.70
2018-11-25T07:40:52.925Z,3.70
2018-11-25T07:43:21.340Z,3.70
2018-11-25T07:45:49.628Z,3.70
2018-11-25T07:48:18.057Z,3.70
2018-11-25T07:50:46.376Z,3.70
2018-11-25T07:53:14.808Z,3.80
2018-11-25T07:55:43.136Z,3.80
2018-11-25T07:58:11.450Z,3.80
2018-11-25T08:00:39.901Z,3.80
2018-11-25T08:03:08.178Z,3.80
2018-11-25T08:05:36.506Z,3.80
2018-11-25T08:08:04.888Z,3.90
2018-11-25T08:10:33.178Z,3.90
2018-11-25T08:13:01.476Z,3.90
2018-11-25T08:15:29.815Z,3.90
2018-11-25T08:17:58.160Z,3.90
2018-11-25T08:20:26.519Z,3.90
2018-11-25T08:22:54.865Z,4.00
2018-11-25T08:25:23.180Z,4.00
2018-11-25T08:27:51.542Z,4.00
2018-11-25T08:30:20.986Z,4.00
2018-11-25T08:32:49.369Z,4.10
2018-11-25T08:35:18.011Z,4.10
2018-11-25T08:37:46.301Z,4.10
2018-11-25T08:40:18.999Z,4.10
2018-11-25T08:42:47.362Z,4.20
2018-11-25T08:45:15.792Z,4.20
2018-11-25T08:47:44.276Z,4.20
2018-11-25T08:50:14.437Z,4.30
2018-11-25T08:52:43.629Z,4.30
2018-11-25T08:55:13.138Z,4.30
2018-11-25T08:57:41.460Z,4.30
2018-11-25T09:00:11.329Z,4.40
2018-11-25T09:02:39.708Z,4.40
2018-11-25T09:05:09.382Z,4.40
2018-11-25T09:07:37.827Z,4.50
2018-11-25T09:10:09.289Z,4.50
2018-11-25T09:12:37.731Z,4.50
2018-11-25T09:15:10.006Z,4.50
2018-11-25T09:17:38.498Z,4.60
2018-11-25T09:20:09.176Z,4.60
2018-11-25T09:22:37.505Z,4.60
2018-11-25T09:25:08.160Z,4.60
2018-11-25T09:27:36.463Z,4.70
2018-11-25T09:30:08.860Z,4.70
2018-11-25T09:32:37.281Z,4.70
2018-11-25T09:35:06.649Z,4.80
2018-11-25T09:37:35.048Z,4.80
2018-11-25T09:40:03.450Z,4.80
2018-11-25T09:42:32.013Z,4.90
2018-11-25T09:45:00.517Z,4.90
2018-11-25T09:47:28.856Z,5.00
2018-11-25T09:49:57.177Z,5.00
2018-11-25T09:52:25.505Z,5.00
2018-11-25T09:54:53.833Z,5.10
2018-11-25T09:57:22.140Z,5.10
2018-11-25T09:59:50.421Z,5.10
2018-11-25T10:02:18.736Z,5.20
2018-11-25T10:04:47.148Z,5.30
2018-11-25T10:07:15.457Z,5.40
2018-11-25T10:09:43.924Z,5.50
2018-11-25T10:12:12.411Z,5.60
2018-11-25T10:14:47.036Z,5.70
2018-11-25T10:17:15.388Z,5.90
2018-11-25T10:19:43.666Z,6.00
2018-11-25T10:22:12.017Z,6.10
2018-11-25T10:24:40.320Z,6.20
2018-11-25T10:27:08.822Z,6.20
2018-11-25T10:29:37.130Z,6.20
2018-11-25T10:32:05.607Z,6.20
2018-11-25T10:34:33.888Z,6.20
2018-11-25T10:37:02.241Z,6.20
2018-11-25T10:39:30.585Z,6.10
2018-11-25T10:41:58.867Z,6.20
2018-11-25T10:44:27.197Z,6.20
2018-11-25T10:46:55.564Z,6.10
2018-11-25T10:49:23.845Z,6.10
2018-11-25T10:51:52.429Z,6.10
2018-11-25T10:54:20.861Z,6.00
2018-11-25T10:56:49.173Z,6.00
2018-11-25T10:59:17.652Z,5.90
2018-11-25T11:01:53.475Z,5.90
2018-11-25T11:04:27.214Z,6.00
2018-11-25T11:07:01.077Z,6.00
2018-11-25T11:09:29.620Z,6.00
2018-11-25T11:11:58.088Z,6.00
2018-11-25T11:14:26.457Z,6.00
2018-11-25T11:16:54.789Z,6.10
2018-11-25T11:19:23.174Z,6.10
2018-11-25T11:21:51.541Z,6.10
2018-11-25T11:24:19.804Z,6.10
2018-11-25T11:26:48.755Z,6.10
2018-11-25T11:29:16.488Z,6.10
2018-11-25T11:31:44.941Z,6.10
2018-11-25T11:34:13.256Z,6.00
2018-11-25T11:36:41.563Z,6.10
2018-11-25T11:39:10.200Z,6.00
2018-11-25T11:41:38.524Z,6.00
2018-11-25T11:44:07.100Z,6.00
2018-11-25T11:46:35.392Z,6.00
2018-11-25T11:49:03.837Z,6.00
2018-11-25T11:51:32.157Z,6.00
2018-11-25T11:54:00.492Z,5.90
2018-11-25T11:56:28.817Z,5.90
2018-11-25T11:58:57.115Z,6.00
2018-11-25T12:01:26.284Z,5.90
2018-11-25T12:03:54.604Z,5.90
2018-11-25T12:06:22.926Z,5.90
2018-11-25T12:08:51.476Z,5.90
2018-11-25T12:11:19.965Z,5.90
2018-11-25T12:13:48.296Z,5.90
2018-11-25T12:16:16.657Z,5.90
2018-11-25T12:18:44.992Z,5.90
2018-11-25T12:21:13.297Z,5.90
2018-11-25T12:23:41.605Z,5.90
2018-11-25T12:26:09.943Z,5.90
2018-11-25T12:28:38.297Z,6.00
2018-11-25T12:31:07.108Z,6.00
2018-11-25T12:33:35.316Z,6.00
2018-11-25T12:36:03.656Z,6.00
2018-11-25T12:38:31.938Z,6.00
2018-11-25T12:41:00.510Z,6.00
2018-11-25T12:43:28.850Z,6.00
2018-11-25T12:45:57.212Z,5.90
2018-11-25T12:48:25.572Z,5.90
2018-11-25T12:50:53.999Z,6.00
2018-11-25T12:53:22.303Z,5.90
2018-11-25T12:55:50.631Z,5.90
2018-11-25T12:58:18.913Z,6.00
2018-11-25T13:00:48.457Z,6.00
2018-11-25T13:03:16.824Z,6.00
2018-11-25T13:05:46.435Z,6.00
2018-11-25T13:08:14.385Z,6.00
2018-11-25T13:10:42.806Z,6.10
2018-11-25T13:13:11.820Z,6.10
2018-11-25T13:15:40.153Z,6.10
2018-11-25T13:18:09.282Z,6.10
2018-11-25T13:20:37.614Z,6.10
2018-11-25T13:23:06.461Z,6.10
2018-11-25T13:25:34.764Z,6.20
2018-11-25T13:28:03.232Z,6.10
2018-11-25T13:32:01.508Z,6.20
2018-11-25T13:34:29.854Z,6.10
2018-11-25T13:36:58.188Z,6.10
2018-11-25T13:39:26.649Z,6.10
2018-11-25T13:41:54.946Z,6.10
2018-11-25T13:44:23.321Z,6.10
2018-11-25T13:46:51.633Z,6.10
2018-11-25T13:49:20.132Z,6.10
2018-11-25T13:51:48.491Z,6.10
2018-11-25T13:54:16.857Z,6.10
2018-11-25T13:56:45.149Z,6.00
2018-11-25T13:59:13.428Z,6.00
2018-11-25T14:01:41.769Z,6.00
2018-11-25T14:04:11.176Z,6.00
2018-11-25T14:06:41.636Z,6.00
2018-11-25T14:09:14.025Z,6.00
2018-11-25T14:11:45.216Z,6.00
2018-11-25T14:14:13.629Z,6.00
2018-11-25T14:16:42.733Z,5.90
2018-11-25T14:19:11.093Z,5.90
2018-11-25T14:21:39.457Z,5.90
2018-11-25T14:24:07.764Z,5.90
2018-11-25T14:26:40.798Z,5.90
2018-11-25T14:29:09.105Z,5.80
2018-11-25T14:31:37.477Z,5.90
2018-11-25T14:34:06.143Z,5.80
2018-11-25T14:36:34.468Z,5.80
2018-11-25T14:39:02.926Z,5.80
2018-11-25T14:41:31.230Z,5.80
2018-11-25T14:43:59.756Z,5.80
2018-11-25T14:46:28.063Z,5.80
2018-11-25T14:48:56.393Z,5.80
2018-11-25T14:51:24.744Z,5.80
2018-11-25T14:53:53.068Z,5.80
2018-11-25T14:56:21.344Z,5.70
2018-11-25T14:58:49.651Z,5.70
2018-11-25T15:01:17.920Z,5.60
2018-11-25T15:03:46.293Z,5.60
2018-11-25T15:06:14.716Z,5.60
2018-11-25T15:08:43.088Z,5.40
2018-11-25T15:11:11.422Z,5.40
2018-11-25T15:13:39.758Z,5.30
2018-11-25T15:16:10.072Z,5.20
2018-11-25T15:18:38.395Z,5.10
2018-11-25T15:21:07.913Z,5.00
2018-11-25T15:23:36.325Z,4.90
2018-11-25T15:26:04.714Z,4.80
2018-11-25T15:28:33.013Z,4.80
2018-11-25T15:31:01.353Z,4.70
2018-11-25T15:33:29.729Z,4.70
2018-11-25T15:35:58.041Z,4.60
2018-11-25T15:38:26.367Z,4.50
2018-11-25T15:40:54.738Z,4.50
2018-11-25T15:43:23.025Z,4.40
2018-11-25T15:45:51.333Z,4.30
2018-11-25T15:48:23.249Z,4.30
2018-11-25T15:50:51.691Z,4.20
2018-11-25T15:53:20.357Z,4.20
2018-11-25T15:55:50.406Z,4.10
2018-11-25T15:58:18.756Z,4.10
2018-11-25T16:00:47.291Z,4.00
2018-11-25T16:03:15.709Z,3.90
2018-11-25T16:05:46.781Z,3.90
2018-11-25T16:08:15.149Z,3.80
2018-11-25T16:10:43.524Z,3.80
2018-11-25T16:13:11.864Z,3.70
2018-11-25T16:15:40.205Z,3.60
2018-11-25T16:18:08.500Z,3.60
2018-11-25T16:20:36.851Z,3.50
2018-11-25T16:23:07.555Z,3.50
2018-11-25T16:25:41.325Z,3.40
2018-11-25T16:28:14.769Z,3.40
2018-11-25T16:30:43.342Z,3.30
2018-11-25T16:33:11.615Z,3.20
2018-11-25T16:35:39.937Z,3.20
2018-11-25T16:38:08.376Z,3.10
2018-11-25T16:40:36.685Z,3.10
2018-11-25T16:43:05.469Z,3.00
2018-11-25T16:45:33.788Z,3.00
2018-11-25T16:48:02.112Z,2.90
2018-11-25T16:50:30.452Z,2.90
2018-11-25T16:52:58.909Z,2.80
2018-11-25T16:55:27.228Z,2.80
2018-11-25T16:57:55.584Z,2.70
2018-11-25T17:00:23.912Z,2.70
2018-11-25T17:02:52.206Z,2.60
2018-11-25T17:05:22.920Z,2.60
2018-11-25T17:07:53.361Z,2.60
2018-11-25T17:10:21.721Z,2.50
2018-11-25T17:12:50.098Z,2.50
2018-11-25T17:15:22.073Z,2.40
2018-11-25T17:17:50.446Z,2.40
2018-11-25T17:20:18.738Z,2.30
2018-11-25T17:22:47.047Z,2.30
2018-11-25T17:25:15.608Z,2.30
2018-11-25T17:27:44.161Z,2.30
2018-11-25T17:30:13.921Z,2.20
2018-11-25T17:32:42.656Z,2.20
2018-11-25T17:35:13.684Z,2.20
2018-11-25T17:37:42.052Z,2.10
2018-11-25T17:40:10.742Z,2.10
2018-11-25T17:42:39.445Z,2.10
2018-11-25T17:45:09.429Z,2.00
2018-11-25T17:47:37.806Z,2.00
2018-11-25T17:50:14.886Z,2.00
2018-11-25T17:52:43.166Z,2.00
2018-11-25T17:55:12.541Z,1.90
2018-11-25T17:57:41.169Z,1.90
2018-11-25T18:00:47.135Z,1.80
2018-11-25T18:03:35.700Z,1.80
2018-11-25T18:06:04.045Z,1.70
2018-11-25T18:08:32.332Z,1.70
2018-11-25T18:11:00.739Z,1.70
2018-11-25T18:13:30.848Z,1.70
2018-11-25T18:16:00.558Z,1.60
2018-11-25T18:18:45.236Z,1.60
2018-11-25T18:21:24.669Z,1.60
2018-11-25T18:23:53.048Z,1.60
2018-11-25T18:26:21.383Z,1.50
2018-11-25T18:28:49.697Z,1.60
2018-11-25T18:31:18.134Z,1.50
2018-11-25T18:33:46.471Z,1.50
2018-11-25T18:36:15.010Z,1.50
2018-11-25T18:38:43.495Z,1.50
2018-11-25T18:41:11.856Z,1.50
2018-11-25T18:43:40.201Z,1.50
2018-11-25T18:46:08.746Z,1.60
2018-11-25T18:48:39.721Z,1.60
2018-11-25T18:51:08.136Z,1.60
2018-11-25T18:53:36.477Z,1.60
2018-11-25T18:56:05.180Z,1.70
2018-11-25T18:58:33.779Z,1.70
2018-11-25T19:01:09.648Z,1.70
2018-11-25T19:03:38.126Z,1.70
2018-11-25T19:06:06.530Z,1.70
2018-11-25T19:08:34.885Z,1.70
2018-11-25T19:11:03.632Z,1.70
2018-11-25T19:13:32.299Z,1.70
2018-11-25T19:16:00.644Z,1.80
2018-11-25T19:18:29.167Z,1.80
2018-11-25T19:20:57.656Z,1.80
2018-11-25T19:23:25.997Z,1.80
2018-11-25T19:25:54.313Z,1.80
2018-11-25T19:28:22.625Z,1.80
2018-11-25T19:30:50.953Z,1.80
2018-11-25T19:33:19.268Z,1.70
2018-11-25T19:35:47.865Z,1.70
2018-11-25T19:38:16.221Z,1.70
2018-11-25T19:40:44.610Z,1.70
2018-11-25T19:43:12.865Z,1.70
2018-11-25T19:45:41.193Z,1.60
2018-11-25T19:48:09.476Z,1.50
2018-11-25T19:50:38.637Z,1.50
2018-11-25T19:53:08.792Z,1.50
2018-11-25T19:55:37.120Z,1.50
2018-11-25T19:58:06.021Z,1.50
2018-11-25T20:00:34.377Z,1.40
2018-11-25T20:03:02.736Z,1.40
2018-11-25T20:05:31.113Z,1.40
2018-11-25T20:07:59.388Z,1.40
2018-11-25T20:10:27.849Z,1.40
2018-11-25T20:12:58.122Z,1.40
2018-11-25T20:15:26.498Z,1.40
2018-11-25T20:17:54.885Z,1.40
2018-11-25T20:20:24.942Z,1.30
2018-11-25T20:22:53.825Z,1.40
2018-11-25T20:25:22.162Z,1.40
2018-11-25T20:27:51.733Z,1.40
2018-11-25T20:30:22.281Z,1.40
2018-11-25T20:32:55.857Z,1.40
2018-11-25T20:35:24.162Z,1.50
2018-11-25T20:37:57.838Z,1.40
2018-11-25T20:40:26.105Z,1.50
2018-11-25T20:42:54.423Z,1.50
2018-11-25T20:45:28.444Z,1.50
2018-11-25T20:47:59.158Z,1.50
2018-11-25T20:50:26.312Z,1.50
2018-11-25T20:52:59.874Z,1.60
2018-11-25T20:55:28.175Z,1.50
2018-11-25T20:57:56.538Z,1.50
2018-11-25T21:00:27.089Z,1.50
2018-11-25T21:02:55.382Z,1.50
2018-11-25T21:05:23.965Z,1.40
2018-11-25T21:07:52.028Z,1.40
2018-11-25T21:10:20.728Z,1.40
2018-11-25T21:12:51.285Z,1.30
2018-11-25T21:15:19.596Z,1.30
2018-11-25T21:17:47.985Z,1.20
2018-11-25T21:20:20.915Z,1.20
2018-11-25T21:22:49.275Z,1.10
2018-11-25T21:25:18.709Z,1.10
2018-11-25T21:27:47.136Z,1.10
2018-11-25T21:30:16.641Z,1.10
2018-11-25T21:32:45.768Z,1.00
2018-11-25T21:35:14.236Z,1.00
2018-11-25T21:37:42.553Z,1.00
2018-11-25T21:40:18.869Z,1.00
2018-11-25T21:42:47.193Z,1.00
2018-11-25T21:45:22.512Z,1.00
2018-11-25T21:47:51.165Z,1.00
2018-11-25T21:50:21.934Z,1.00
2018-11-25T21:52:50.212Z,1.00
2018-11-25T21:55:18.917Z,0.90
2018-11-25T21:57:47.220Z,0.90
2018-11-25T22:00:16.525Z,0.90
2018-11-25T22:02:44.844Z,0.90
2018-11-25T22:05:13.470Z,0.90
2018-11-25T22:07:41.819Z,0.90
2018-11-25T22:10:14.177Z,1.00
2018-11-25T22:12:42.992Z,1.00
2018-11-25T22:15:13.238Z,1.00
2018-11-25T22:17:41.650Z,1.00
2018-11-25T22:20:11.012Z,1.00
2018-11-25T22:22:39.340Z,1.10
2018-11-25T22:25:11.476Z,1.10
2018-11-25T22:27:39.773Z,1.00
2018-11-25T22:30:17.862Z,1.00
2018-11-25T22:32:46.178Z,1.00
2018-11-25T22:35:16.569Z,1.00
2018-11-25T22:37:44.884Z,1.00
2018-11-25T22:40:14.247Z,1.00
2018-11-25T22:42:43.384Z,1.00
2018-11-25T22:45:12.899Z,0.90
2018-11-25T22:47:41.233Z,0.90
2018-11-25T22:50:11.757Z,0.90
2018-11-25T22:52:40.036Z,0.90
2018-11-25T22:55:15.744Z,0.90
2018-11-25T22:57:44.207Z,0.90
2018-11-25T23:00:22.243Z,1.00
2018-11-25T23:02:50.575Z,1.00
2018-11-25T23:05:30.087Z,1.00
2018-11-25T23:07:58.523Z,1.00
2018-11-25T23:10:26.841Z,1.10
2018-11-25T23:12:55.137Z,1.10
2018-11-25T23:15:23.434Z,1.10
2018-11-25T23:17:51.716Z,1.10
2018-11-25T23:20:20.003Z,1.10
2018-11-25T23:22:48.336Z,1.20
2018-11-25T23:25:16.685Z,1.20
2018-11-25T23:27:44.987Z,1.20
2018-11-25T23:30:13.388Z,1.20
2018-11-25T23:32:41.707Z,1.20
2018-11-25T23:35:17.973Z,1.20
2018-11-25T23:37:46.303Z,1.20
2018-11-25T23:40:14.597Z,1.20
2018-11-25T23:42:42.861Z,1.10
2018-11-25T23:45:12.382Z,1.10
2018-11-25T23:47:40.717Z,1.10
2018-11-25T23:50:10.046Z,1.10
2018-11-25T23:52:38.548Z,1.10
2018-11-25T23:55:08.190Z,1.10
2018-11-25T23:57:36.702Z,1.00
